Time;durP1;ratioP1;P1;durP2;ratioP2;P2;SDS_P1;SDS_P2;PMS_P1;PMS_P2;Temp;Humidity;BMP_temperature;BMP_pressure;BME280_temperature;BME280_humidity;BME280_pressure;Samples;Min_cycle;Max_cycle;Signal;HPM_P1;HPM_P2
2022/04/10 00:01:54;;;;;;;9.95;7.28;;;;;;;;;;4936739;29;20381;-48
2022/04/10 00:04:20;;;;;;;9.93;6.80;;;;;;;;;;4939300;29;20019;-53
2022/04/10 00:06:46;;;;;;;7.00;5.65;;;;;;;;;;4938736;29;20028;-54
2022/04/10 00:09:13;;;;;;;7.88;5.55;;;;;;;;;;4939052;29;20023;-52
2022/04/10 00:11:40;;;;;;;7.22;5.13;;;;;;;;;;4938884;29;20036;-53
2022/04/10 00:14:06;;;;;;;5.85;4.80;;;;;;;;;;4938868;29;20034;-51
2022/04/10 00:16:32;;;;;;;4.78;3.97;;;;;;;;;;4939186;29;20020;-53
2022/04/10 00:19:04;;;;;;;3.90;3.40;;;;;;;;;;4938849;29;20024;-53
2022/04/10 00:21:31;;;;;;;4.13;3.17;;;;;;;;;;4938818;29;20035;-53
2022/04/10 00:23:57;;;;;;;5.30;2.63;;;;;;;;;;4938787;29;20035;-52
2022/04/10 00:26:24;;;;;;;3.75;2.67;;;;;;;;;;4938683;29;20034;-54
2022/04/10 00:28:53;;;;;;;3.95;2.45;;;;;;;;;;4938918;29;20020;-54
2022/04/10 00:31:19;;;;;;;3.17;2.40;;;;;;;;;;4938525;29;20115;-54
2022/04/10 00:33:46;;;;;;;2.47;2.22;;;;;;;;;;4938716;29;20034;-54
2022/04/10 00:36:12;;;;;;;2.50;1.98;;;;;;;;;;4938711;29;20031;-50
2022/04/10 00:38:38;;;;;;;2.50;2.05;;;;;;;;;;4938558;29;20114;-51
2022/04/10 00:41:05;;;;;;;2.30;1.85;;;;;;;;;;4938286;29;20024;-52
2022/04/10 00:43:32;;;;;;;3.10;2.25;;;;;;;;;;4938461;29;20106;-54
2022/04/10 00:45:58;;;;;;;2.78;1.85;;;;;;;;;;4938595;29;20051;-56
2022/04/10 00:48:25;;;;;;;2.75;2.00;;;;;;;;;;4938295;29;20106;-55
2022/04/10 00:53:37;;;;;;;4.13;2.30;;;;;;;;;;4938376;29;20094;-53
2022/04/10 00:56:03;;;;;;;2.30;2.10;;;;;;;;;;4938281;29;20023;-53
2022/04/10 00:58:29;;;;;;;3.28;2.20;;;;;;;;;;4938537;29;20042;-51
2022/04/10 01:00:55;;;;;;;2.83;2.10;;;;;;;;;;4937832;29;20115;-51
2022/04/10 01:03:22;;;;;;;2.30;1.73;;;;;;;;;;4938396;29;20122;-52
2022/04/10 01:05:48;;;;;;;3.42;1.48;;;;;;;;;;4938625;29;20491;-53
2022/04/10 01:08:15;;;;;;;3.00;1.95;;;;;;;;;;4937953;29;20039;-51
2022/04/10 01:10:42;;;;;;;2.35;1.42;;;;;;;;;;4937872;29;20079;-50
2022/04/10 01:13:09;;;;;;;3.90;1.50;;;;;;;;;;4937454;29;20024;-53
2022/04/10 01:15:36;;;;;;;2.50;1.70;;;;;;;;;;4937419;29;20023;-53
2022/04/10 01:18:02;;;;;;;2.33;1.80;;;;;;;;;;4937705;29;20035;-48
2022/04/10 01:20:28;;;;;;;1.17;1.08;;;;;;;;;;4938130;29;20024;-48
2022/04/10 01:22:55;;;;;;;0.95;0.80;;;;;;;;;;4937355;29;20485;-49
2022/04/10 01:25:21;;;;;;;2.00;1.00;;;;;;;;;;4937696;29;20032;-49
2022/04/10 01:27:47;;;;;;;0.40;0.40;;;;;;;;;;4937904;29;20024;-50
2022/04/10 01:30:15;;;;;;;0.93;0.55;;;;;;;;;;4937573;29;20032;-48
2022/04/10 01:32:41;;;;;;;1.85;0.60;;;;;;;;;;4937933;29;20436;-48
2022/04/10 01:35:07;;;;;;;0.63;0.40;;;;;;;;;;4937549;29;20020;-49
2022/04/10 01:37:35;;;;;;;3.00;0.60;;;;;;;;;;4937103;29;20028;-49
2022/04/10 01:40:02;;;;;;;0.75;0.30;;;;;;;;;;4937339;29;20405;-50
2022/04/10 01:42:28;;;;;;;0.77;0.40;;;;;;;;;;4937329;29;20042;-49
2022/04/10 01:44:54;;;;;;;0.20;0.20;;;;;;;;;;4937640;29;20034;-47
2022/04/10 01:47:21;;;;;;;0.20;0.20;;;;;;;;;;4937510;29;20034;-53
2022/04/10 01:49:47;;;;;;;0.50;0.40;;;;;;;;;;4937510;29;20090;-49
2022/04/10 01:52:13;;;;;;;1.40;0.60;;;;;;;;;;4937112;29;20051;-49
2022/04/10 01:54:39;;;;;;;0.82;0.30;;;;;;;;;;4937506;29;20038;-50
2022/04/10 01:57:06;;;;;;;0.88;0.30;;;;;;;;;;4937095;29;20031;-50
2022/04/10 01:59:32;;;;;;;0.20;0.20;;;;;;;;;;4937012;29;20027;-48
2022/04/10 02:01:58;;;;;;;0.40;0.28;;;;;;;;;;4936957;29;20042;-48
2022/04/10 02:04:24;;;;;;;0.47;0.28;;;;;;;;;;4936932;29;20045;-48
2022/04/10 02:06:50;;;;;;;0.47;0.25;;;;;;;;;;4936923;29;20020;-53
2022/04/10 02:09:18;;;;;;;0.35;0.30;;;;;;;;;;4937085;29;20454;-54
2022/04/10 02:11:44;;;;;;;1.45;0.55;;;;;;;;;;4936783;29;20481;-53
2022/04/10 02:14:10;;;;;;;0.40;0.40;;;;;;;;;;4936000;29;20032;-54
2022/04/10 02:16:36;;;;;;;0.43;0.40;;;;;;;;;;4936908;29;20032;-54
2022/04/10 02:19:02;;;;;;;1.52;0.60;;;;;;;;;;4936659;29;20028;-48
2022/04/10 02:21:29;;;;;;;0.85;0.60;;;;;;;;;;4936874;29;20067;-52
2022/04/10 02:23:55;;;;;;;0.50;0.32;;;;;;;;;;4936642;29;20030;-52
2022/04/10 02:26:21;;;;;;;1.38;0.70;;;;;;;;;;4935915;29;20039;-53
2022/04/10 02:28:47;;;;;;;1.77;0.50;;;;;;;;;;4936493;29;20155;-51
2022/04/10 02:31:13;;;;;;;1.23;0.60;;;;;;;;;;4936879;29;20042;-51
2022/04/10 02:33:39;;;;;;;1.40;0.65;;;;;;;;;;4936428;29;20028;-50
2022/04/10 02:36:06;;;;;;;1.02;0.50;;;;;;;;;;4936860;29;20028;-48
2022/04/10 02:38:32;;;;;;;0.82;0.60;;;;;;;;;;4936413;29;20024;-54
2022/04/10 02:40:58;;;;;;;0.80;0.60;;;;;;;;;;4936130;29;20458;-53
2022/04/10 02:43:24;;;;;;;1.45;0.52;;;;;;;;;;4936712;29;20040;-52
2022/04/10 02:45:50;;;;;;;1.63;0.77;;;;;;;;;;4936924;29;20028;-52
2022/04/10 02:48:16;;;;;;;2.92;0.90;;;;;;;;;;4936472;29;20024;-52
2022/04/10 02:50:43;;;;;;;2.30;0.95;;;;;;;;;;4936250;29;20035;-53
2022/04/10 02:53:09;;;;;;;1.20;0.75;;;;;;;;;;4936076;29;20102;-53
2022/04/10 02:55:35;;;;;;;1.70;0.65;;;;;;;;;;4936178;29;20055;-52
2022/04/10 02:58:01;;;;;;;1.23;0.90;;;;;;;;;;4936711;29;20032;-51
2022/04/10 03:00:28;;;;;;;1.35;0.90;;;;;;;;;;4936183;29;20020;-53
2022/04/10 03:02:54;;;;;;;1.58;0.73;;;;;;;;;;4936156;29;20028;-53
2022/04/10 03:05:20;;;;;;;2.35;1.40;;;;;;;;;;4936707;29;20020;-50
2022/04/10 03:07:46;;;;;;;1.30;1.10;;;;;;;;;;4936126;29;20067;-48
2022/04/10 03:10:12;;;;;;;1.15;0.98;;;;;;;;;;4936390;29;20020;-49
2022/04/10 03:12:38;;;;;;;1.20;1.00;;;;;;;;;;4936352;29;20199;-51
2022/04/10 03:15:05;;;;;;;1.92;1.10;;;;;;;;;;4936052;29;20054;-52
2022/04/10 03:17:31;;;;;;;1.10;1.00;;;;;;;;;;4936304;29;20023;-49
2022/04/10 03:19:57;;;;;;;1.20;1.10;;;;;;;;;;4936340;29;20034;-53
2022/04/10 03:22:23;;;;;;;1.35;1.10;;;;;;;;;;4935574;29;20032;-53
2022/04/10 03:24:49;;;;;;;1.63;1.30;;;;;;;;;;4935986;29;20031;-50
2022/04/10 03:27:16;;;;;;;1.20;1.10;;;;;;;;;;4936181;29;20052;-51
2022/04/10 03:29:42;;;;;;;1.30;1.20;;;;;;;;;;4936148;29;20027;-52
2022/04/10 03:32:08;;;;;;;1.50;1.30;;;;;;;;;;4936449;29;20031;-50
2022/04/10 03:34:34;;;;;;;1.75;1.40;;;;;;;;;;4936167;29;20015;-52
2022/04/10 03:37:00;;;;;;;1.73;1.50;;;;;;;;;;4936913;29;20024;-49
2022/04/10 03:39:26;;;;;;;2.22;1.83;;;;;;;;;;4939857;29;20046;-49
2022/04/10 03:41:52;;;;;;;1.90;1.70;;;;;;;;;;4939258;29;20466;-53
2022/04/10 03:44:18;;;;;;;1.88;1.60;;;;;;;;;;4939754;29;20031;-49
2022/04/10 03:46:45;;;;;;;1.80;1.60;;;;;;;;;;4939710;29;20031;-50
2022/04/10 03:49:11;;;;;;;1.85;1.60;;;;;;;;;;4939293;29;20331;-53
2022/04/10 03:51:37;;;;;;;2.30;2.00;;;;;;;;;;4939395;29;20052;-53
2022/04/10 03:54:03;;;;;;;2.90;1.88;;;;;;;;;;4939801;29;20060;-54
2022/04/10 03:56:29;;;;;;;1.98;1.60;;;;;;;;;;4939311;29;20050;-53
2022/04/10 03:58:56;;;;;;;1.83;1.45;;;;;;;;;;4939581;29;20377;-53
2022/04/10 04:01:22;;;;;;;1.55;1.40;;;;;;;;;;4939393;29;20016;-54
2022/04/10 04:03:48;;;;;;;1.77;1.50;;;;;;;;;;4938903;29;20413;-55
2022/04/10 04:06:14;;;;;;;6.28;3.55;;;;;;;;;;4939482;29;20027;-50
2022/04/10 04:08:41;;;;;;;2.53;1.85;;;;;;;;;;4939122;29;20024;-53
2022/04/10 04:11:07;;;;;;;1.92;1.70;;;;;;;;;;4939046;29;20031;-54
2022/04/10 04:13:36;;;;;;;1.65;1.30;;;;;;;;;;4939393;29;20346;-52
2022/04/10 04:16:02;;;;;;;1.10;0.90;;;;;;;;;;4938981;29;20040;-54
2022/04/10 04:18:28;;;;;;;1.55;0.80;;;;;;;;;;4938932;29;20035;-54
2022/04/10 04:20:55;;;;;;;1.20;0.90;;;;;;;;;;4938864;29;20382;-53
2022/04/10 04:23:21;;;;;;;3.65;1.98;;;;;;;;;;4938771;29;20042;-53
2022/04/10 04:25:47;;;;;;;2.42;1.35;;;;;;;;;;4939005;29;20038;-51
2022/04/10 04:28:13;;;;;;;1.90;1.20;;;;;;;;;;4939011;29;20039;-53
2022/04/10 04:30:40;;;;;;;1.25;0.75;;;;;;;;;;4938716;29;20028;-55
2022/04/10 04:33:06;;;;;;;1.45;0.80;;;;;;;;;;4938700;29;20115;-54
2022/04/10 04:35:32;;;;;;;1.13;0.80;;;;;;;;;;4938839;29;20032;-54
2022/04/10 04:38:00;;;;;;;1.17;0.60;;;;;;;;;;4938329;29;20036;-53
2022/04/10 04:40:26;;;;;;;0.90;0.73;;;;;;;;;;4939006;29;20032;-51
2022/04/10 04:42:53;;;;;;;0.93;0.80;;;;;;;;;;4938637;29;20035;-50
2022/04/10 04:45:19;;;;;;;1.25;0.93;;;;;;;;;;4938450;29;20028;-54
2022/04/10 04:47:45;;;;;;;3.80;1.10;;;;;;;;;;4938406;29;20038;-50
2022/04/10 04:50:12;;;;;;;1.48;1.00;;;;;;;;;;4938293;29;20024;-53
2022/04/10 04:52:38;;;;;;;1.35;1.05;;;;;;;;;;4938134;29;20497;-52
2022/04/10 04:55:04;;;;;;;2.70;1.75;;;;;;;;;;4938789;29;20024;-53
2022/04/10 04:57:30;;;;;;;2.00;1.40;;;;;;;;;;4938527;29;20039;-55
2022/04/10 04:59:56;;;;;;;3.35;2.10;;;;;;;;;;4938109;29;20024;-54
2022/04/10 05:02:22;;;;;;;2.45;1.77;;;;;;;;;;4938338;29;20039;-53
2022/04/10 05:04:51;;;;;;;1.55;1.30;;;;;;;;;;4938213;29;20050;-53
2022/04/10 05:07:17;;;;;;;2.22;1.40;;;;;;;;;;4937989;29;20381;-51
2022/04/10 05:09:43;;;;;;;3.13;1.65;;;;;;;;;;4937999;29;20016;-54
2022/04/10 05:12:09;;;;;;;2.72;1.60;;;;;;;;;;4937966;29;20032;-55
2022/04/10 05:14:36;;;;;;;4.82;1.90;;;;;;;;;;4937865;29;20059;-53
2022/04/10 05:17:02;;;;;;;1.20;1.10;;;;;;;;;;4938284;29;20028;-55
2022/04/10 05:19:28;;;;;;;1.20;1.00;;;;;;;;;;4938137;29;20019;-54
2022/04/10 05:21:54;;;;;;;6.75;4.00;;;;;;;;;;4937392;29;20028;-54
2022/04/10 05:24:20;;;;;;;4.00;2.40;;;;;;;;;;4937723;29;20075;-52
2022/04/10 05:26:46;;;;;;;4.10;2.65;;;;;;;;;;4938332;29;20388;-52
2022/04/10 05:29:12;;;;;;;5.60;2.70;;;;;;;;;;4937093;29;20358;-49
2022/04/10 05:31:58;;;;;;;4.47;3.25;;;;;;;;;;4936274;29;20623;-55
2022/04/10 05:34:33;;;;;;;4.60;3.03;;;;;;;;;;4937276;29;20504;-54
2022/04/10 05:37:00;;;;;;;5.22;3.08;;;;;;;;;;4937571;29;20026;-50
2022/04/10 05:39:26;;;;;;;4.60;3.08;;;;;;;;;;4937506;29;20030;-49
2022/04/10 05:41:58;;;;;;;4.80;3.13;;;;;;;;;;4936861;29;20042;-55
2022/04/10 05:44:26;;;;;;;3.55;2.40;;;;;;;;;;4937289;29;20035;-49
2022/04/10 05:46:54;;;;;;;4.57;2.15;;;;;;;;;;4937249;29;20048;-54
2022/04/10 05:49:20;;;;;;;3.83;1.90;;;;;;;;;;4937213;29;20023;-48
2022/04/10 05:51:50;;;;;;;2.40;1.92;;;;;;;;;;4936923;29;20071;-51
2022/04/10 05:54:17;;;;;;;3.58;2.40;;;;;;;;;;4936879;29;20564;-48
2022/04/10 05:56:43;;;;;;;3.28;2.13;;;;;;;;;;4936969;29;20032;-52
2022/04/10 05:59:09;;;;;;;3.15;2.30;;;;;;;;;;4936852;29;20087;-53
2022/04/10 06:01:35;;;;;;;6.55;2.78;;;;;;;;;;4936312;29;20032;-49
2022/04/10 06:04:02;;;;;;;4.95;2.67;;;;;;;;;;4935265;29;20067;-48
2022/04/10 06:06:28;;;;;;;5.55;2.58;;;;;;;;;;4937076;29;20024;-53
2022/04/10 06:08:54;;;;;;;4.15;2.88;;;;;;;;;;4937048;29;20035;-49
2022/04/10 06:11:26;;;;;;;3.83;2.92;;;;;;;;;;4935939;29;20114;-56
2022/04/10 06:13:54;;;;;;;6.13;3.90;;;;;;;;;;4936857;29;20016;-48
2022/04/10 06:16:22;;;;;;;5.85;4.20;;;;;;;;;;4936819;29;20584;-52
2022/04/10 06:18:48;;;;;;;7.65;4.90;;;;;;;;;;4936789;29;20027;-51
2022/04/10 06:21:14;;;;;;;9.27;4.65;;;;;;;;;;4936627;29;20114;-52
2022/04/10 06:23:40;;;;;;;5.32;3.72;;;;;;;;;;4936514;29;20035;-50
2022/04/10 06:26:06;;;;;;;6.10;3.85;;;;;;;;;;4936713;29;20028;-50
2022/04/10 06:28:32;;;;;;;7.07;3.80;;;;;;;;;;4936557;29;20094;-51
2022/04/10 06:30:58;;;;;;;7.10;4.32;;;;;;;;;;4936483;29;20020;-49
2022/04/10 06:33:25;;;;;;;4.90;3.80;;;;;;;;;;4936885;29;20078;-50
2022/04/10 06:35:53;;;;;;;6.47;4.03;;;;;;;;;;4936632;29;20031;-50
2022/04/10 06:38:19;;;;;;;5.85;3.78;;;;;;;;;;4936592;29;20039;-51
2022/04/10 06:40:47;;;;;;;3.92;3.50;;;;;;;;;;4936689;29;20381;-50
2022/04/10 06:43:13;;;;;;;6.63;3.90;;;;;;;;;;4936589;29;20051;-48
2022/04/10 06:45:39;;;;;;;6.80;4.22;;;;;;;;;;4935046;29;20083;-51
2022/04/10 06:48:06;;;;;;;7.38;4.32;;;;;;;;;;4936205;29;20385;-51
2022/04/10 06:50:32;;;;;;;6.28;4.00;;;;;;;;;;4935272;29;20020;-52
2022/04/10 06:52:58;;;;;;;7.38;4.82;;;;;;;;;;4935828;29;20052;-50
2022/04/10 06:55:24;;;;;;;4.72;3.67;;;;;;;;;;4935173;29;20024;-47
2022/04/10 06:57:51;;;;;;;7.45;5.20;;;;;;;;;;4936338;29;20027;-51
2022/04/10 07:00:17;;;;;;;5.00;4.05;;;;;;;;;;4936492;29;20031;-49
2022/04/10 07:02:43;;;;;;;6.30;4.20;;;;;;;;;;4936425;29;20051;-48
2022/04/10 07:05:09;;;;;;;5.80;3.42;;;;;;;;;;4935946;29;20032;-52
2022/04/10 07:07:35;;;;;;;6.22;4.10;;;;;;;;;;4936319;29;20082;-48
2022/04/10 07:10:01;;;;;;;4.90;3.45;;;;;;;;;;4936461;29;20086;-51
2022/04/10 07:12:27;;;;;;;5.43;3.60;;;;;;;;;;4937914;29;20397;-49
2022/04/10 07:15:02;;;;;;;6.82;4.45;;;;;;;;;;4940168;29;20020;-55
2022/04/10 07:17:34;;;;;;;10.13;6.47;;;;;;;;;;4940232;29;20035;-53
2022/04/10 07:20:03;;;;;;;13.27;7.07;;;;;;;;;;4939573;29;20048;-56
2022/04/10 07:25:14;;;;;;;10.73;6.82;;;;;;;;;;4938771;29;20420;-52
2022/04/10 07:27:40;;;;;;;11.93;7.18;;;;;;;;;;4939161;29;20082;-50
2022/04/10 07:30:06;;;;;;;9.57;6.82;;;;;;;;;;4939005;29;20465;-54
2022/04/10 07:32:32;;;;;;;9.88;6.32;;;;;;;;;;4939067;29;20655;-52
2022/04/10 07:35:02;;;;;;;8.10;5.70;;;;;;;;;;4938934;29;20469;-50
2022/04/10 07:37:28;;;;;;;8.55;5.47;;;;;;;;;;4937841;29;20091;-48
2022/04/10 07:39:54;;;;;;;7.32;5.07;;;;;;;;;;4939120;29;20036;-53
2022/04/10 07:42:21;;;;;;;7.80;5.25;;;;;;;;;;4939481;29;20469;-48
2022/04/10 07:44:47;;;;;;;7.13;5.10;;;;;;;;;;4939458;29;20054;-54
2022/04/10 07:47:25;;;;;;;8.32;5.78;;;;;;;;;;4939213;29;20074;-51
2022/04/10 07:49:53;;;;;;;8.13;5.57;;;;;;;;;;4939592;29;20058;-52
2022/04/10 07:52:19;;;;;;;10.38;7.00;;;;;;;;;;4938956;29;20119;-49
2022/04/10 07:54:45;;;;;;;10.77;7.47;;;;;;;;;;4939119;29;20024;-50
2022/04/10 07:57:11;;;;;;;11.32;8.18;;;;;;;;;;4939222;29;20094;-52
2022/04/10 07:59:37;;;;;;;10.27;7.72;;;;;;;;;;4939251;29;20028;-53
2022/04/10 08:02:04;;;;;;;12.27;7.80;;;;;;;;;;4938829;29;20049;-53
2022/04/10 08:04:30;;;;;;;9.85;6.70;;;;;;;;;;4938804;29;20572;-53
2022/04/10 08:06:56;;;;;;;10.60;7.65;;;;;;;;;;4939310;29;20031;-53
2022/04/10 08:09:26;;;;;;;9.95;6.72;;;;;;;;;;4938674;29;20027;-54
2022/04/10 08:11:53;;;;;;;11.95;8.38;;;;;;;;;;4939216;29;20027;-45
2022/04/10 08:14:20;;;;;;;9.68;7.15;;;;;;;;;;4939171;29;20494;-47
2022/04/10 08:16:46;;;;;;;11.00;7.32;;;;;;;;;;4938910;29;20031;-47
2022/04/10 08:19:12;;;;;;;12.05;7.20;;;;;;;;;;4938960;29;20019;-52
2022/04/10 08:21:38;;;;;;;12.52;8.40;;;;;;;;;;4938972;29;20042;-45
2022/04/10 08:24:05;;;;;;;13.63;8.73;;;;;;;;;;4938622;29;20028;-50
2022/04/10 08:26:32;;;;;;;12.38;8.82;;;;;;;;;;4938810;29;20054;-53
2022/04/10 08:28:58;;;;;;;9.30;6.70;;;;;;;;;;4938298;29;20031;-51
2022/04/10 08:31:26;;;;;;;10.07;7.07;;;;;;;;;;4938707;29;20024;-47
2022/04/10 08:33:52;;;;;;;11.27;7.35;;;;;;;;;;4938751;29;20027;-48
2022/04/10 08:36:19;;;;;;;9.43;7.18;;;;;;;;;;4938321;29;20221;-50
2022/04/10 08:38:49;;;;;;;15.55;7.97;;;;;;;;;;4938970;29;20036;-48
2022/04/10 08:41:18;;;;;;;10.48;6.85;;;;;;;;;;4917543;29;20024;-48
2022/04/10 08:43:45;;;;;;;11.75;7.47;;;;;;;;;;4919178;29;20036;-50
2022/04/10 08:46:14;;;;;;;10.65;6.93;;;;;;;;;;4918201;29;20025;-51
2022/04/10 08:48:41;;;;;;;9.70;6.40;;;;;;;;;;4918622;29;20129;-50
2022/04/10 08:51:07;;;;;;;9.15;7.18;;;;;;;;;;4931829;29;20495;-51
2022/04/10 08:53:34;;;;;;;8.98;6.65;;;;;;;;;;4936147;29;20034;-52
2022/04/10 08:56:01;;;;;;;8.80;6.72;;;;;;;;;;4937044;29;20044;-49
2022/04/10 08:58:27;;;;;;;11.27;7.93;;;;;;;;;;4937206;29;20111;-50
2022/04/10 09:00:54;;;;;;;9.25;6.80;;;;;;;;;;4937880;29;20058;-49
2022/04/10 09:03:20;;;;;;;10.52;7.43;;;;;;;;;;4937907;29;20597;-47
2022/04/10 09:06:01;;;;;;;10.23;7.13;;;;;;;;;;4936483;29;20377;-46
2022/04/10 09:08:27;;;;;;;12.35;7.95;;;;;;;;;;4938083;29;20577;-52
2022/04/10 09:11:01;;;;;;;10.75;8.05;;;;;;;;;;4937523;29;20496;-47
2022/04/10 09:13:29;;;;;;;10.52;7.55;;;;;;;;;;4937801;29;20054;-48
2022/04/10 09:16:02;;;;;;;11.50;8.48;;;;;;;;;;4937829;29;20051;-45
2022/04/10 09:18:28;;;;;;;14.27;9.48;;;;;;;;;;4936949;29;20031;-49
2022/04/10 09:21:07;;;;;;;13.85;9.32;;;;;;;;;;4936047;29;20023;-50
2022/04/10 09:23:33;;;;;;;10.07;7.07;;;;;;;;;;4936253;29;20028;-51
2022/04/10 09:26:00;;;;;;;13.68;8.60;;;;;;;;;;4937515;29;20032;-50
2022/04/10 09:28:41;;;;;;;11.88;8.88;;;;;;;;;;4937475;29;20054;-46
2022/04/10 09:31:26;;;;;;;11.95;8.90;;;;;;;;;;4937686;29;20067;-47
2022/04/10 09:33:53;;;;;;;9.73;7.72;;;;;;;;;;4937359;29;20430;-49
2022/04/10 09:36:29;;;;;;;10.80;7.75;;;;;;;;;;4937060;29;20366;-45
2022/04/10 09:38:55;;;;;;;8.57;6.40;;;;;;;;;;4936823;29;20024;-46
2022/04/10 09:41:22;;;;;;;7.85;5.85;;;;;;;;;;4936923;29;20042;-47
2022/04/10 09:43:48;;;;;;;8.27;6.60;;;;;;;;;;4937436;29;20031;-50
2022/04/10 09:46:14;;;;;;;9.30;6.70;;;;;;;;;;4936045;29;20035;-46
2022/04/10 09:48:40;;;;;;;7.40;6.00;;;;;;;;;;4937266;29;20035;-47
2022/04/10 09:51:06;;;;;;;7.75;5.60;;;;;;;;;;4935926;29;20074;-48
2022/04/10 09:53:33;;;;;;;7.38;6.22;;;;;;;;;;4936719;29;20516;-48
2022/04/10 09:56:02;;;;;;;9.32;7.00;;;;;;;;;;4937143;29;20031;-46
2022/04/10 09:58:28;;;;;;;8.30;7.20;;;;;;;;;;4937215;29;20031;-45
2022/04/10 10:00:55;;;;;;;10.20;7.55;;;;;;;;;;4937267;29;20020;-50
2022/04/10 10:03:22;;;;;;;8.85;6.78;;;;;;;;;;4937174;29;20020;-48
2022/04/10 10:05:50;;;;;;;14.82;10.98;;;;;;;;;;4937029;29;20024;-49
2022/04/10 10:08:17;;;;;;;10.98;7.20;;;;;;;;;;4935800;29;20067;-47
2022/04/10 10:10:44;;;;;;;9.45;5.05;;;;;;;;;;4935822;29;20046;-51
2022/04/10 10:13:13;;;;;;;11.20;6.07;;;;;;;;;;4936549;29;20469;-50
2022/04/10 10:15:39;;;;;;;9.40;6.57;;;;;;;;;;4936632;29;20035;-48
2022/04/10 10:18:16;;;;;;;8.95;4.93;;;;;;;;;;4936765;29;20024;-52
2022/04/10 10:20:45;;;;;;;9.55;5.22;;;;;;;;;;4936885;29;20106;-52
2022/04/10 10:23:13;;;;;;;7.05;5.13;;;;;;;;;;4936265;29;20477;-48
2022/04/10 10:25:45;;;;;;;6.72;4.68;;;;;;;;;;4936070;29;20036;-50
2022/04/10 10:28:14;;;;;;;7.82;4.68;;;;;;;;;;4936527;29;20492;-48
2022/04/10 10:30:43;;;;;;;7.03;5.50;;;;;;;;;;4936544;29;20427;-49
2022/04/10 10:33:18;;;;;;;8.93;6.03;;;;;;;;;;4936777;29;20039;-51
2022/04/10 10:35:49;;;;;;;8.98;6.60;;;;;;;;;;4934926;29;20114;-50
2022/04/10 10:38:20;;;;;;;9.43;5.90;;;;;;;;;;4936142;29;20110;-51
2022/04/10 10:40:46;;;;;;;9.63;5.55;;;;;;;;;;4937547;29;20043;-53
2022/04/10 10:43:12;;;;;;;9.93;6.55;;;;;;;;;;4936321;29;20091;-52
2022/04/10 10:45:40;;;;;;;9.27;6.70;;;;;;;;;;4936125;29;20065;-53
2022/04/10 10:48:26;;;;;;;9.05;5.90;;;;;;;;;;4936123;29;20078;-52
2022/04/10 10:50:55;;;;;;;7.65;5.28;;;;;;;;;;4935074;29;20028;-52
2022/04/10 10:53:39;;;;;;;7.18;5.60;;;;;;;;;;4935373;29;20063;-50
2022/04/10 10:56:05;;;;;;;7.40;5.15;;;;;;;;;;4934671;29;20074;-50
2022/04/10 10:58:32;;;;;;;7.50;4.78;;;;;;;;;;4935853;29;20031;-49
2022/04/10 11:01:07;;;;;;;7.00;4.38;;;;;;;;;;4936380;29;20055;-52
2022/04/10 11:03:33;;;;;;;5.65;4.43;;;;;;;;;;4935767;29;20038;-47
2022/04/10 11:06:06;;;;;;;6.65;4.72;;;;;;;;;;4935449;29;20039;-47
2022/04/10 11:08:39;;;;;;;8.10;4.70;;;;;;;;;;4936093;29;20329;-51
2022/04/10 11:11:05;;;;;;;7.32;5.53;;;;;;;;;;4935347;29;20067;-50
2022/04/10 11:13:38;;;;;;;9.93;5.90;;;;;;;;;;4935914;29;20028;-50
2022/04/10 11:16:11;;;;;;;10.40;7.15;;;;;;;;;;4936165;29;20034;-52
2022/04/10 11:18:41;;;;;;;11.32;6.93;;;;;;;;;;4935651;29;20038;-47
2022/04/10 11:21:19;;;;;;;22.15;12.48;;;;;;;;;;4936325;29;20028;-53
2022/04/10 11:23:45;;;;;;;10.07;8.18;;;;;;;;;;4936059;29;20035;-52
2022/04/10 11:26:21;;;;;;;14.88;10.68;;;;;;;;;;4935904;29;20024;-53
2022/04/10 11:29:07;;;;;;;12.63;10.07;;;;;;;;;;4935794;29;20066;-52
2022/04/10 11:31:36;;;;;;;15.27;11.43;;;;;;;;;;4934752;29;20035;-52
2022/04/10 11:34:21;;;;;;;16.95;12.43;;;;;;;;;;4934564;29;20111;-51
2022/04/10 11:36:48;;;;;;;18.05;12.88;;;;;;;;;;4933788;29;20089;-45
2022/04/10 11:39:16;;;;;;;21.40;14.18;;;;;;;;;;4934168;29;20099;-49
2022/04/10 11:41:43;;;;;;;18.42;14.48;;;;;;;;;;4934858;29;20024;-49
2022/04/10 11:44:12;;;;;;;18.30;14.40;;;;;;;;;;4935347;29;20508;-52
2022/04/10 11:46:39;;;;;;;12.65;10.02;;;;;;;;;;4935313;29;20127;-52
2022/04/10 11:49:06;;;;;;;16.30;11.95;;;;;;;;;;4935797;29;20483;-50
2022/04/10 11:51:49;;;;;;;15.00;10.82;;;;;;;;;;4935762;29;20059;-50
2022/04/10 11:54:23;;;;;;;13.63;10.73;;;;;;;;;;4935570;29;20389;-49
2022/04/10 11:56:49;;;;;;;13.40;10.70;;;;;;;;;;4935887;29;20473;-49
2022/04/10 11:59:15;;;;;;;14.20;12.00;;;;;;;;;;4938412;29;20521;-50
2022/04/10 12:01:42;;;;;;;17.35;11.73;;;;;;;;;;4939266;29;20024;-49
2022/04/10 12:04:09;;;;;;;13.25;10.38;;;;;;;;;;4939045;29;20437;-50
2022/04/10 12:06:35;;;;;;;13.52;10.95;;;;;;;;;;4938610;29;20385;-50
2022/04/10 12:09:01;;;;;;;12.02;8.80;;;;;;;;;;4939091;29;20422;-47
2022/04/10 12:11:37;;;;;;;14.20;11.05;;;;;;;;;;4939122;29;20474;-49
2022/04/10 12:14:14;;;;;;;13.27;10.10;;;;;;;;;;4938400;29;20028;-50
2022/04/10 12:16:43;;;;;;;12.02;9.90;;;;;;;;;;4939009;29;20020;-50
2022/04/10 12:19:09;;;;;;;14.82;11.68;;;;;;;;;;4939016;29;20110;-51
2022/04/10 12:21:36;;;;;;;16.08;12.88;;;;;;;;;;4938297;29;20024;-53
2022/04/10 12:24:03;;;;;;;15.00;11.23;;;;;;;;;;4938651;29;20024;-50
2022/04/10 12:26:29;;;;;;;10.50;8.95;;;;;;;;;;4939480;29;20029;-49
2022/04/10 12:28:56;;;;;;;13.48;11.05;;;;;;;;;;4938300;29;20024;-49
2022/04/10 12:31:22;;;;;;;12.63;9.25;;;;;;;;;;4937875;29;20366;-45
2022/04/10 12:33:48;;;;;;;13.50;10.73;;;;;;;;;;4937681;29;20461;-49
2022/04/10 12:36:18;;;;;;;13.75;11.38;;;;;;;;;;4937763;29;20024;-48
2022/04/10 12:38:44;;;;;;;15.55;11.90;;;;;;;;;;4938291;29;20038;-50
2022/04/10 12:41:10;;;;;;;20.42;13.15;;;;;;;;;;4937802;29;20030;-46
2022/04/10 12:43:37;;;;;;;13.45;9.38;;;;;;;;;;4938080;29;20023;-48
2022/04/10 12:46:12;;;;;;;11.25;7.75;;;;;;;;;;4938246;29;20376;-50
2022/04/10 12:48:39;;;;;;;8.32;6.47;;;;;;;;;;4938542;29;20024;-47
2022/04/10 12:51:06;;;;;;;11.23;7.70;;;;;;;;;;4937792;29;20015;-47
2022/04/10 12:53:32;;;;;;;9.80;7.55;;;;;;;;;;4938084;29;20027;-52
2022/04/10 12:55:59;;;;;;;9.82;7.45;;;;;;;;;;4937943;29;20462;-51
2022/04/10 12:58:31;;;;;;;10.23;7.40;;;;;;;;;;4938014;29;20099;-47
2022/04/10 13:00:59;;;;;;;17.95;9.68;;;;;;;;;;4938096;29;20020;-52
2022/04/10 13:03:27;;;;;;;11.55;8.90;;;;;;;;;;4937249;29;20080;-51
2022/04/10 13:06:05;;;;;;;9.75;7.85;;;;;;;;;;4936216;29;20036;-52
2022/04/10 13:08:36;;;;;;;10.10;7.40;;;;;;;;;;4936228;29;20031;-47
2022/04/10 13:11:02;;;;;;;11.32;7.57;;;;;;;;;;4936162;29;20027;-50
2022/04/10 13:13:29;;;;;;;8.77;7.10;;;;;;;;;;4937999;29;20035;-48
2022/04/10 13:15:57;;;;;;;9.27;6.68;;;;;;;;;;4937658;29;20028;-52
2022/04/10 13:18:27;;;;;;;10.50;7.47;;;;;;;;;;4937859;29;20032;-51
2022/04/10 13:20:53;;;;;;;10.93;7.85;;;;;;;;;;4937954;29;20414;-50
2022/04/10 13:23:19;;;;;;;8.20;6.85;;;;;;;;;;4937094;29;20036;-50
2022/04/10 13:25:46;;;;;;;9.10;6.72;;;;;;;;;;4937289;29;20171;-50
2022/04/10 13:28:15;;;;;;;8.93;6.18;;;;;;;;;;4937800;29;20055;-45
2022/04/10 13:30:41;;;;;;;8.38;6.40;;;;;;;;;;4935678;29;20039;-51
2022/04/10 13:33:08;;;;;;;12.02;6.47;;;;;;;;;;4936279;29;20036;-50
2022/04/10 13:35:34;;;;;;;9.20;7.53;;;;;;;;;;4937208;29;20015;-51
2022/04/10 13:38:00;;;;;;;9.15;6.88;;;;;;;;;;4936942;29;20373;-48
2022/04/10 13:40:26;;;;;;;9.63;7.38;;;;;;;;;;4937327;29;20027;-49
2022/04/10 13:42:52;;;;;;;11.93;8.00;;;;;;;;;;4937423;29;20027;-48
2022/04/10 13:45:19;;;;;;;14.07;9.68;;;;;;;;;;4936975;29;20032;-50
2022/04/10 13:47:45;;;;;;;10.77;6.57;;;;;;;;;;4937506;29;20369;-49
2022/04/10 13:50:11;;;;;;;8.00;6.47;;;;;;;;;;4937108;29;20163;-50
2022/04/10 13:52:38;;;;;;;8.90;6.72;;;;;;;;;;4937149;29;20051;-50
2022/04/10 13:55:05;;;;;;;8.40;5.97;;;;;;;;;;4937397;29;20028;-50
2022/04/10 13:57:31;;;;;;;8.68;6.40;;;;;;;;;;4937275;29;20115;-48
2022/04/10 13:59:57;;;;;;;7.05;6.20;;;;;;;;;;4936959;29;20054;-48
2022/04/10 14:02:23;;;;;;;9.07;5.82;;;;;;;;;;4936757;29;20023;-45
2022/04/10 14:04:50;;;;;;;10.82;6.57;;;;;;;;;;4936497;29;20067;-49
2022/04/10 14:07:16;;;;;;;7.78;5.70;;;;;;;;;;4937012;29;20035;-50
2022/04/10 14:09:42;;;;;;;9.32;6.90;;;;;;;;;;4937036;29;20042;-50
2022/04/10 14:12:08;;;;;;;7.10;6.40;;;;;;;;;;4936666;29;20126;-52
2022/04/10 14:14:36;;;;;;;6.85;6.05;;;;;;;;;;4937072;29;20032;-50
2022/04/10 14:17:04;;;;;;;7.88;6.93;;;;;;;;;;4936571;29;20023;-50
2022/04/10 14:19:30;;;;;;;8.65;7.07;;;;;;;;;;4936280;29;20028;-50
2022/04/10 14:22:01;;;;;;;8.93;7.13;;;;;;;;;;4936589;29;20027;-47
2022/04/10 14:24:30;;;;;;;11.25;6.90;;;;;;;;;;4936365;29;20031;-50
2022/04/10 14:26:57;;;;;;;10.65;7.88;;;;;;;;;;4936345;29;20031;-47
2022/04/10 14:29:24;;;;;;;14.88;8.82;;;;;;;;;;4936857;29;20032;-51
2022/04/10 14:31:50;;;;;;;16.25;10.90;;;;;;;;;;4935423;29;20028;-49
2022/04/10 14:34:19;;;;;;;14.95;9.85;;;;;;;;;;4936367;29;20031;-51
2022/04/10 14:36:45;;;;;;;11.63;8.50;;;;;;;;;;4930425;29;20485;-47
2022/04/10 14:39:11;;;;;;;11.90;8.55;;;;;;;;;;4935624;29;20100;-51
2022/04/10 14:41:37;;;;;;;11.57;8.48;;;;;;;;;;4935603;29;20028;-48
2022/04/10 14:44:04;;;;;;;14.48;8.32;;;;;;;;;;4936244;29;20039;-48
2022/04/10 14:46:30;;;;;;;12.10;9.95;;;;;;;;;;4936244;29;20027;-50